Time;durP1;ratioP1;P1;durP2;ratioP2;P2;SDS_P1;SDS_P2;PMS_P1;PMS_P2;Temp;Humidity;BMP_temperature;BMP_pressure;BME280_temperature;BME280_humidity;BME280_pressure;Samples;Min_cycle;Max_cycle;Signal;HPM_P1;HPM_P2
2023/08/05 00:01:38;;;;;;;6.43;2.20;;;20.00;99.90;;;;;;6184424;23;20105;-78
2023/08/05 00:04:04;;;;;;;2.30;1.73;;;20.10;99.90;;;;;;6182638;23;20009;-79
2023/08/05 00:06:29;;;;;;;4.40;2.05;;;20.10;99.90;;;;;;6182791;23;20056;-78
2023/08/05 00:08:58;;;;;;;1.98;1.88;;;20.00;99.90;;;;;;6184067;23;20472;-79
2023/08/05 00:11:23;;;;;;;3.80;2.03;;;20.00;99.90;;;;;;6183983;23;20024;-78
2023/08/05 00:13:49;;;;;;;2.30;2.00;;;20.00;99.90;;;;;;6184076;23;20616;-78
2023/08/05 00:16:15;;;;;;;2.55;2.15;;;20.00;99.90;;;;;;6184287;23;19996;-79
2023/08/05 00:18:41;;;;;;;2.25;1.85;;;20.00;99.90;;;;;;6184160;23;20368;-78
2023/08/05 00:21:06;;;;;;;2.53;1.95;;;20.00;99.90;;;;;;6182334;23;20016;-78
2023/08/05 00:23:32;;;;;;;4.95;2.67;;;20.00;99.90;;;;;;6183989;23;20005;-78
2023/08/05 00:25:58;;;;;;;4.85;2.00;;;19.90;99.90;;;;;;6184128;23;20008;-78
2023/08/05 00:28:23;;;;;;;4.30;2.28;;;19.90;99.90;;;;;;6184040;23;20588;-78
2023/08/05 00:30:49;;;;;;;1.95;1.70;;;19.90;99.90;;;;;;6182395;23;20009;-78
2023/08/05 00:33:15;;;;;;;3.05;2.10;;;19.80;99.90;;;;;;6182242;23;20004;-77
2023/08/05 00:35:40;;;;;;;3.10;2.05;;;19.80;99.90;;;;;;6183859;23;20081;-78
2023/08/05 00:38:06;;;;;;;2.53;2.25;;;19.80;99.90;;;;;;6182325;23;20024;-77
2023/08/05 00:40:32;;;;;;;4.57;1.90;;;19.80;99.90;;;;;;6183783;23;20487;-77
2023/08/05 00:42:57;;;;;;;3.75;1.67;;;19.80;99.90;;;;;;6183756;23;20051;-77
2023/08/05 00:45:23;;;;;;;2.95;1.85;;;19.80;99.90;;;;;;6183976;23;20084;-77
2023/08/05 00:47:49;;;;;;;2.88;2.05;;;19.70;99.90;;;;;;6182167;23;20020;-77
2023/08/05 00:50:15;;;;;;;1.88;1.77;;;19.80;99.90;;;;;;6182146;23;20317;-77
2023/08/05 00:52:42;;;;;;;2.60;1.67;;;19.80;99.90;;;;;;6183728;23;20084;-77
2023/08/05 00:55:08;;;;;;;2.40;2.20;;;19.80;99.90;;;;;;6184006;23;20080;-77
2023/08/05 00:57:34;;;;;;;2.47;1.83;;;19.80;99.90;;;;;;6183758;23;20001;-77
2023/08/05 01:00:00;;;;;;;2.38;1.63;;;19.80;99.90;;;;;;6183608;23;20020;-77
2023/08/05 01:02:26;;;;;;;2.83;2.08;;;19.80;99.90;;;;;;6183772;23;20418;-77
2023/08/05 01:04:52;;;;;;;3.28;2.17;;;19.80;99.90;;;;;;6183727;23;20326;-78
2023/08/05 01:07:20;;;;;;;2.03;1.92;;;19.70;99.90;;;;;;6182270;23;20084;-77
2023/08/05 01:09:46;;;;;;;4.80;2.08;;;19.80;99.90;;;;;;6182043;23;20013;-77
2023/08/05 01:12:11;;;;;;;3.33;1.85;;;19.80;99.90;;;;;;6183716;23;20425;-77
2023/08/05 01:14:37;;;;;;;2.33;2.00;;;19.70;99.90;;;;;;6182052;23;20059;-77
2023/08/05 01:17:03;;;;;;;3.20;2.13;;;19.80;99.90;;;;;;6183608;23;20004;-77
2023/08/05 01:19:31;;;;;;;6.03;1.98;;;19.80;99.90;;;;;;6183450;23;20005;-77
2023/08/05 01:22:29;;;;;;;3.42;1.77;;;19.80;99.90;;;;;;6182202;23;20005;-77
2023/08/05 01:25:05;;;;;;;3.85;2.72;;;19.80;99.90;;;;;;6183796;23;20001;-77
2023/08/05 01:27:33;;;;;;;2.97;1.92;;;19.70;99.90;;;;;;6181631;23;20456;-77
2023/08/05 01:29:59;;;;;;;3.80;2.28;;;19.70;99.90;;;;;;6183568;23;20444;-77
2023/08/05 01:32:27;;;;;;;2.33;2.13;;;19.80;99.90;;;;;;6184614;23;19997;-77
2023/08/05 01:34:53;;;;;;;3.72;2.58;;;19.70;99.90;;;;;;6185314;23;20011;-77
2023/08/05 01:37:20;;;;;;;4.25;2.30;;;19.70;99.90;;;;;;6183973;23;20001;-77
2023/08/05 01:39:45;;;;;;;2.20;2.00;;;19.70;99.90;;;;;;6183727;23;20008;-77
2023/08/05 01:42:11;;;;;;;3.83;2.10;;;19.80;99.90;;;;;;6185352;23;19997;-77
2023/08/05 01:44:37;;;;;;;3.72;1.98;;;19.70;99.90;;;;;;6185182;23;20005;-77
2023/08/05 01:47:03;;;;;;;2.40;2.20;;;19.80;99.90;;;;;;6183915;23;20005;-77
2023/08/05 01:49:28;;;;;;;3.47;1.90;;;19.80;99.90;;;;;;6185292;23;20079;-77
2023/08/05 01:51:54;;;;;;;2.45;2.25;;;19.70;99.90;;;;;;6185405;23;20448;-77
2023/08/05 01:54:20;;;;;;;2.22;1.70;;;19.70;99.90;;;;;;6185293;23;20005;-77
2023/08/05 01:56:45;;;;;;;2.22;1.83;;;19.70;99.90;;;;;;6185191;23;20056;-78
2023/08/05 01:59:11;;;;;;;2.90;2.10;;;19.70;99.90;;;;;;6185045;23;20004;-78
2023/08/05 02:01:47;;;;;;;2.53;2.17;;;19.70;99.90;;;;;;6183645;23;20005;-77
2023/08/05 02:04:14;;;;;;;1.83;1.73;;;19.70;99.90;;;;;;6185110;23;20089;-77
2023/08/05 02:06:40;;;;;;;1.92;1.63;;;19.70;99.90;;;;;;6185347;23;20345;-77
2023/08/05 02:09:06;;;;;;;2.63;2.13;;;19.60;99.90;;;;;;6185148;23;20011;-78
2023/08/05 02:11:32;;;;;;;2.40;2.20;;;19.60;99.90;;;;;;6184998;23;20087;-78
2023/08/05 02:13:57;;;;;;;2.00;1.80;;;19.60;99.90;;;;;;6185006;23;20005;-78
2023/08/05 02:16:23;;;;;;;2.85;1.95;;;19.40;99.90;;;;;;6183589;23;20011;-77
2023/08/05 02:18:50;;;;;;;4.15;1.98;;;19.40;99.90;;;;;;6183484;23;20020;-78
2023/08/05 02:21:15;;;;;;;3.05;1.95;;;19.60;99.90;;;;;;6184994;23;20001;-78
2023/08/05 02:23:41;;;;;;;5.40;2.33;;;19.50;99.90;;;;;;6184708;23;20001;-78
2023/08/05 02:26:07;;;;;;;3.03;2.15;;;19.50;99.90;;;;;;6184940;23;20005;-77
2023/08/05 02:28:32;;;;;;;3.88;2.30;;;19.40;99.90;;;;;;6184639;23;20020;-78
2023/08/05 02:30:58;;;;;;;2.13;1.90;;;19.40;99.90;;;;;;6183335;23;20064;-78
2023/08/05 02:33:24;;;;;;;3.17;2.03;;;19.40;99.90;;;;;;6183248;23;20064;-78
2023/08/05 02:35:55;;;;;;;4.22;2.33;;;19.50;99.90;;;;;;6184774;23;20024;-78
2023/08/05 02:38:21;;;;;;;1.52;1.42;;;19.50;99.90;;;;;;6184848;23;20024;-78
2023/08/05 02:40:46;;;;;;;1.92;1.83;;;19.50;99.90;;;;;;6184948;23;20311;-78
2023/08/05 02:43:12;;;;;;;3.20;1.80;;;19.50;99.90;;;;;;6184303;23;20080;-78
2023/08/05 02:45:38;;;;;;;4.75;1.90;;;19.50;99.90;;;;;;6184639;23;20005;-78
2023/08/05 02:48:04;;;;;;;2.25;1.52;;;19.50;99.90;;;;;;6183150;23;20096;-78
2023/08/05 02:50:32;;;;;;;1.65;1.55;;;19.50;99.90;;;;;;6184801;23;20019;-79
2023/08/05 02:52:58;;;;;;;2.85;1.80;;;19.50;99.90;;;;;;6184309;23;20007;-78
2023/08/05 02:55:23;;;;;;;2.03;1.77;;;19.50;99.90;;;;;;6184685;23;20029;-78
2023/08/05 02:57:49;;;;;;;1.75;1.65;;;19.60;99.90;;;;;;6184534;23;20380;-77
2023/08/05 03:00:15;;;;;;;2.70;1.50;;;19.50;99.90;;;;;;6184567;23;20425;-78
2023/08/05 03:02:40;;;;;;;2.00;1.90;;;19.50;99.90;;;;;;6184688;23;20076;-78
2023/08/05 03:05:06;;;;;;;2.13;1.92;;;19.50;99.90;;;;;;6184480;23;20414;-78
2023/08/05 03:07:32;;;;;;;2.58;1.23;;;19.50;99.90;;;;;;6184615;23;20421;-78
2023/08/05 03:09:58;;;;;;;2.00;1.52;;;19.50;99.90;;;;;;6184252;23;20317;-78
2023/08/05 03:12:24;;;;;;;2.25;1.73;;;19.50;99.90;;;;;;6182880;23;20005;-78
2023/08/05 03:14:51;;;;;;;3.20;1.60;;;19.40;99.90;;;;;;6184378;23;20001;-78
2023/08/05 03:17:17;;;;;;;1.30;1.27;;;19.40;99.90;;;;;;6184632;23;20025;-78
2023/08/05 03:19:42;;;;;;;1.30;1.20;;;19.40;99.90;;;;;;6182703;23;20426;-77
2023/08/05 03:22:08;;;;;;;1.40;1.30;;;19.40;99.90;;;;;;6184446;23;20084;-78
2023/08/05 03:24:34;;;;;;;1.50;1.30;;;19.30;99.90;;;;;;6184451;23;20040;-78
2023/08/05 03:26:59;;;;;;;1.33;1.23;;;19.20;99.90;;;;;;6184346;23;20088;-78
2023/08/05 03:29:25;;;;;;;3.95;1.17;;;19.20;99.90;;;;;;6184204;23;20081;-78
2023/08/05 03:31:51;;;;;;;1.67;0.80;;;19.20;99.90;;;;;;6184512;23;20028;-78
2023/08/05 03:34:17;;;;;;;1.20;1.10;;;19.30;99.90;;;;;;6184034;23;20037;-78
2023/08/05 03:36:43;;;;;;;0.90;0.90;;;19.30;99.90;;;;;;6184363;23;19997;-78
2023/08/05 03:39:09;;;;;;;1.30;1.25;;;19.30;99.90;;;;;;6182462;23;20059;-78
2023/08/05 03:41:35;;;;;;;1.55;1.25;;;19.30;99.90;;;;;;6184126;23;20039;-78
2023/08/05 03:44:04;;;;;;;2.00;0.82;;;19.30;99.90;;;;;;6182682;23;20075;-78
2023/08/05 03:46:29;;;;;;;1.33;1.23;;;19.40;99.90;;;;;;6184438;23;20035;-78
2023/08/05 03:48:55;;;;;;;1.02;1.00;;;19.40;99.90;;;;;;6183986;23;20433;-78
2023/08/05 03:51:21;;;;;;;1.30;1.00;;;19.40;99.90;;;;;;6182714;23;20013;-77
2023/08/05 03:53:47;;;;;;;1.50;1.00;;;19.40;99.90;;;;;;6182031;23;20012;-78
2023/08/05 03:56:13;;;;;;;1.48;1.30;;;19.40;99.90;;;;;;6183874;23;20008;-78
2023/08/05 03:58:43;;;;;;;1.25;1.13;;;19.40;99.90;;;;;;6184193;23;20084;-78
2023/08/05 04:01:09;;;;;;;1.02;1.02;;;19.40;99.90;;;;;;6182560;23;20005;-78
2023/08/05 04:03:36;;;;;;;1.25;1.20;;;19.40;99.90;;;;;;6183752;23;20012;-78
2023/08/05 04:06:02;;;;;;;1.33;1.30;;;19.40;99.90;;;;;;6184146;23;20104;-78
2023/08/05 04:08:28;;;;;;;2.15;1.85;;;19.40;99.90;;;;;;6183962;23;20445;-78
2023/08/05 04:10:54;;;;;;;1.45;1.45;;;19.40;99.90;;;;;;6184003;23;20005;-78
2023/08/05 04:13:23;;;;;;;1.80;1.70;;;19.40;99.90;;;;;;6182070;23;20015;-78
2023/08/05 04:15:51;;;;;;;1.50;1.40;;;19.40;99.90;;;;;;6184114;23;20223;-78
2023/08/05 04:18:17;;;;;;;1.60;1.50;;;19.50;99.90;;;;;;6183917;23;20063;-78
2023/08/05 04:20:45;;;;;;;3.75;1.75;;;19.40;99.90;;;;;;6183915;23;20005;-78
2023/08/05 04:23:14;;;;;;;1.63;1.58;;;19.40;99.90;;;;;;6182197;23;20229;-78
2023/08/05 04:25:46;;;;;;;2.05;1.70;;;19.30;99.90;;;;;;6183874;23;20001;-77
2023/08/05 04:28:12;;;;;;;1.63;1.52;;;19.20;99.90;;;;;;6183601;23;20023;-77
2023/08/05 04:30:37;;;;;;;5.35;1.58;;;19.30;99.90;;;;;;6183754;23;20005;-77
2023/08/05 04:33:03;;;;;;;2.58;1.92;;;19.30;99.90;;;;;;6183663;23;20059;-77
2023/08/05 04:35:29;;;;;;;3.53;1.80;;;19.40;99.90;;;;;;6183755;23;20444;-78
2023/08/05 04:37:54;;;;;;;2.65;1.73;;;19.20;99.90;;;;;;6183524;23;20028;-77
2023/08/05 04:40:20;;;;;;;1.90;1.75;;;19.20;99.90;;;;;;6183687;23;20000;-78
2023/08/05 04:42:46;;;;;;;1.70;1.60;;;19.30;99.90;;;;;;6182111;23;20044;-77
2023/08/05 04:45:12;;;;;;;2.58;2.10;;;19.30;99.90;;;;;;6183724;23;19997;-78
2023/08/05 04:47:38;;;;;;;2.10;1.90;;;19.30;99.90;;;;;;6183675;23;20390;-77
2023/08/05 04:50:04;;;;;;;2.40;2.17;;;19.30;99.90;;;;;;6183719;23;20032;-77
2023/08/05 04:52:30;;;;;;;1.80;1.70;;;19.40;99.90;;;;;;6183771;23;20005;-77
2023/08/05 04:54:56;;;;;;;2.70;2.50;;;19.50;99.90;;;;;;6182088;23;20147;-77
2023/08/05 04:57:21;;;;;;;2.83;2.50;;;19.30;99.90;;;;;;6183538;23;20001;-77
2023/08/05 04:59:47;;;;;;;2.15;2.05;;;19.20;99.90;;;;;;6183290;23;20024;-77
2023/08/05 05:02:13;;;;;;;2.30;2.10;;;19.30;99.90;;;;;;6181964;23;20211;-77
2023/08/05 05:04:39;;;;;;;2.30;2.03;;;19.30;99.90;;;;;;6183582;23;20012;-77
2023/08/05 05:07:04;;;;;;;2.35;2.20;;;19.30;99.90;;;;;;6185337;23;20008;-77
2023/08/05 05:09:32;;;;;;;2.70;2.15;;;19.30;99.90;;;;;;6185584;23;20012;-77
2023/08/05 05:12:00;;;;;;;2.00;1.90;;;19.30;99.90;;;;;;6185629;23;20405;-77
2023/08/05 05:14:25;;;;;;;2.35;2.25;;;19.40;99.90;;;;;;6185412;23;20005;-77
2023/08/05 05:16:51;;;;;;;2.47;2.28;;;19.40;99.90;;;;;;6185765;23;20333;-77
2023/08/05 05:19:17;;;;;;;2.60;2.17;;;19.40;99.90;;;;;;6185446;23;19997;-77
2023/08/05 05:21:42;;;;;;;3.33;2.15;;;19.40;99.90;;;;;;6185590;23;20389;-77
2023/08/05 05:24:08;;;;;;;1.83;1.73;;;19.40;99.90;;;;;;6185541;23;20009;-77
2023/08/05 05:26:34;;;;;;;2.63;1.80;;;19.40;99.90;;;;;;6185258;23;20437;-77
2023/08/05 05:28:59;;;;;;;2.00;1.88;;;19.40;99.90;;;;;;6185184;23;20087;-77
2023/08/05 05:31:25;;;;;;;2.08;1.90;;;19.30;99.90;;;;;;6185652;23;20001;-77
2023/08/05 05:33:51;;;;;;;3.08;1.95;;;19.40;99.90;;;;;;6185196;23;20034;-77
2023/08/05 05:36:17;;;;;;;2.83;2.40;;;19.30;99.90;;;;;;6183818;23;20012;-77
2023/08/05 05:38:42;;;;;;;3.30;2.20;;;19.30;99.90;;;;;;6185333;23;20429;-78
2023/08/05 05:41:08;;;;;;;2.38;2.17;;;19.30;99.90;;;;;;6185359;23;20076;-77
2023/08/05 05:43:35;;;;;;;5.05;2.25;;;19.30;99.90;;;;;;6184908;23;20071;-78
2023/08/05 05:46:00;;;;;;;2.50;2.30;;;19.30;99.90;;;;;;6185407;23;19997;-78
2023/08/05 05:48:27;;;;;;;2.40;1.90;;;19.30;99.90;;;;;;6183573;23;20032;-78
2023/08/05 05:50:53;;;;;;;2.38;2.17;;;19.30;99.90;;;;;;6183820;23;20088;-78
2023/08/05 05:53:18;;;;;;;2.53;2.10;;;19.40;99.90;;;;;;6183499;23;20441;-78
2023/08/05 05:55:47;;;;;;;3.35;1.95;;;19.40;99.90;;;;;;6183724;23;20036;-78
2023/08/05 05:58:13;;;;;;;2.17;1.92;;;19.40;99.90;;;;;;6184938;23;20005;-78
2023/08/05 06:00:39;;;;;;;2.53;1.75;;;19.40;99.90;;;;;;6183628;23;20005;-78
2023/08/05 06:03:06;;;;;;;2.30;2.10;;;19.40;99.90;;;;;;6183470;23;20012;-78
2023/08/05 06:05:35;;;;;;;2.95;2.10;;;19.40;99.90;;;;;;6185205;23;20024;-78
2023/08/05 06:08:00;;;;;;;2.72;2.17;;;19.40;99.90;;;;;;6184981;23;20338;-78
2023/08/05 06:10:26;;;;;;;2.00;1.80;;;19.50;99.90;;;;;;6185165;23;20009;-78
2023/08/05 06:12:52;;;;;;;3.75;2.67;;;19.50;99.90;;;;;;6183116;23;20062;-78
2023/08/05 06:15:17;;;;;;;2.33;2.13;;;19.50;99.90;;;;;;6185040;23;20310;-78
2023/08/05 06:17:45;;;;;;;2.10;2.00;;;19.50;99.90;;;;;;6184622;23;20004;-77
2023/08/05 06:20:11;;;;;;;2.60;2.10;;;19.50;99.90;;;;;;6184959;23;20503;-78
2023/08/05 06:22:37;;;;;;;2.13;1.90;;;19.50;99.90;;;;;;6185161;23;19997;-78
2023/08/05 06:25:03;;;;;;;3.28;2.17;;;19.50;99.90;;;;;;6184899;23;20058;-77
2023/08/05 06:27:32;;;;;;;3.55;1.90;;;19.50;99.90;;;;;;6184382;23;20123;-77
2023/08/05 06:29:58;;;;;;;3.70;1.90;;;19.50;99.90;;;;;;6183116;23;20099;-77
2023/08/05 06:32:24;;;;;;;2.97;1.75;;;19.50;99.90;;;;;;6185085;23;20005;-76
2023/08/05 06:34:49;;;;;;;1.95;1.85;;;19.50;99.90;;;;;;6183053;23;20009;-76
2023/08/05 06:37:15;;;;;;;2.33;2.08;;;19.40;99.90;;;;;;6183124;23;20036;-76
2023/08/05 06:39:41;;;;;;;2.88;1.80;;;19.50;99.90;;;;;;6184517;23;20366;-77
2023/08/05 06:42:06;;;;;;;3.38;1.98;;;19.50;99.90;;;;;;6184642;23;20001;-76
2023/08/05 06:44:32;;;;;;;3.30;1.70;;;19.50;99.90;;;;;;6184687;23;20127;-76
2023/08/05 06:46:58;;;;;;;3.25;2.40;;;19.50;99.90;;;;;;6183227;23;20007;-76
2023/08/05 06:49:23;;;;;;;4.32;2.17;;;19.40;99.90;;;;;;6184553;23;20487;-77
2023/08/05 06:51:50;;;;;;;1.60;1.50;;;19.40;99.90;;;;;;6182921;23;20440;-76
2023/08/05 06:54:16;;;;;;;1.58;1.48;;;19.40;99.90;;;;;;6182879;23;20099;-76
2023/08/05 06:56:42;;;;;;;2.45;1.55;;;19.40;99.90;;;;;;6182887;23;20009;-77
2023/08/05 06:59:08;;;;;;;2.47;1.92;;;19.50;99.90;;;;;;6184536;23;20135;-77
2023/08/05 07:01:33;;;;;;;1.63;1.52;;;19.40;99.90;;;;;;6184687;23;20139;-76
2023/08/05 07:03:59;;;;;;;7.25;2.20;;;19.50;99.90;;;;;;6184494;23;20496;-76
2023/08/05 07:06:25;;;;;;;3.00;2.00;;;19.40;99.90;;;;;;6184541;23;20005;-76
2023/08/05 07:08:51;;;;;;;2.53;1.65;;;19.30;99.90;;;;;;6184553;23;20005;-76
2023/08/05 07:11:17;;;;;;;2.63;1.70;;;19.40;99.90;;;;;;6184454;23;20020;-76
2023/08/05 07:13:42;;;;;;;4.50;2.08;;;19.40;99.90;;;;;;6184243;23;20005;-76
2023/08/05 07:16:08;;;;;;;2.38;2.17;;;19.50;99.90;;;;;;6184432;23;20008;-76
2023/08/05 07:18:34;;;;;;;3.10;2.08;;;19.50;99.90;;;;;;6182690;23;20005;-76
2023/08/05 07:20:59;;;;;;;2.75;2.42;;;19.50;99.90;;;;;;6184468;23;20001;-76
2023/08/05 07:23:25;;;;;;;2.17;1.98;;;19.60;99.90;;;;;;6182617;23;20445;-76
2023/08/05 07:25:51;;;;;;;2.33;2.13;;;19.60;99.90;;;;;;6184229;23;20001;-76
2023/08/05 07:28:17;;;;;;;2.50;2.25;;;19.60;99.90;;;;;;6183932;23;20017;-76
2023/08/05 07:30:42;;;;;;;3.33;2.80;;;19.60;99.90;;;;;;6184271;23;20009;-76
2023/08/05 07:33:11;;;;;;;4.40;2.35;;;19.70;99.90;;;;;;6185223;23;20008;-76
2023/08/05 07:35:37;;;;;;;4.38;2.45;;;19.70;99.90;;;;;;6184267;23;20032;-76
2023/08/05 07:38:09;;;;;;;4.65;3.50;;;19.70;99.90;;;;;;6185935;23;20380;-76
2023/08/05 07:40:40;;;;;;;5.47;3.83;;;19.70;99.90;;;;;;6185808;23;20036;-76
2023/08/05 07:43:08;;;;;;;4.05;3.65;;;19.80;99.90;;;;;;6185587;23;20011;-76
2023/08/05 07:45:35;;;;;;;4.13;3.08;;;19.80;99.90;;;;;;6185875;23;20060;-76
2023/08/05 07:48:06;;;;;;;3.47;3.13;;;19.80;99.90;;;;;;6185689;23;20032;-75
2023/08/05 07:50:32;;;;;;;3.42;3.13;;;19.80;99.90;;;;;;6184043;23;20532;-76
2023/08/05 07:52:58;;;;;;;2.90;2.65;;;19.80;99.90;;;;;;6185411;23;20008;-76
2023/08/05 07:55:29;;;;;;;3.15;2.85;;;19.90;99.90;;;;;;6185557;23;20008;-76
2023/08/05 07:57:55;;;;;;;3.20;2.90;;;19.90;99.90;;;;;;6183491;23;20005;-76
2023/08/05 08:00:21;;;;;;;3.70;3.03;;;19.90;99.90;;;;;;6185354;23;19997;-76
2023/08/05 08:02:46;;;;;;;4.25;3.20;;;20.00;99.90;;;;;;6183836;23;20084;-76
2023/08/05 08:05:14;;;;;;;3.17;3.08;;;20.00;99.90;;;;;;6184963;23;20005;-76
2023/08/05 08:07:46;;;;;;;3.85;3.22;;;20.00;99.90;;;;;;6183862;23;20009;-76
2023/08/05 08:10:13;;;;;;;3.80;3.60;;;20.10;99.90;;;;;;6185453;23;20001;-76
2023/08/05 08:12:38;;;;;;;4.38;3.97;;;20.10;99.90;;;;;;6185455;23;19990;-76
2023/08/05 08:15:05;;;;;;;4.68;4.35;;;20.10;99.90;;;;;;6185042;23;20001;-77
2023/08/05 08:17:30;;;;;;;4.78;4.45;;;20.20;99.90;;;;;;6185440;23;20005;-77
2023/08/05 08:19:56;;;;;;;5.93;5.43;;;20.30;99.90;;;;;;6184952;23;20076;-77
2023/08/05 08:22:22;;;;;;;4.78;4.38;;;20.30;99.90;;;;;;6185412;23;20003;-77
2023/08/05 08:24:48;;;;;;;6.88;5.28;;;20.30;99.90;;;;;;6183882;23;20052;-77
2023/08/05 08:27:13;;;;;;;6.10;5.47;;;20.20;99.90;;;;;;6183483;23;20044;-77
2023/08/05 08:29:39;;;;;;;5.72;4.95;;;20.40;99.90;;;;;;6183301;23;20017;-75
2023/08/05 08:32:05;;;;;;;5.97;5.32;;;20.40;99.90;;;;;;6180132;23;20012;-76
2023/08/05 08:34:31;;;;;;;6.13;5.65;;;20.50;99.90;;;;;;6181105;23;20001;-76
2023/08/05 08:36:56;;;;;;;4.80;4.50;;;20.60;99.90;;;;;;6181139;23;20080;-76
2023/08/05 08:39:22;;;;;;;4.80;4.45;;;20.50;99.90;;;;;;6180724;23;20002;-77
2023/08/05 08:41:50;;;;;;;5.20;4.82;;;20.50;99.90;;;;;;6180936;23;20001;-76
2023/08/05 08:44:16;;;;;;;5.25;4.78;;;20.60;99.90;;;;;;6183011;23;20005;-76
2023/08/05 08:46:44;;;;;;;5.60;4.10;;;20.60;99.90;;;;;;6183592;23;20009;-76
2023/08/05 08:49:13;;;;;;;4.63;4.22;;;20.80;99.90;;;;;;6183384;23;20009;-79
2023/08/05 08:51:40;;;;;;;4.32;3.92;;;20.80;99.90;;;;;;6183798;23;20005;-79
2023/08/05 08:54:07;;;;;;;4.22;3.85;;;20.90;99.90;;;;;;6181921;23;20005;-76
2023/08/05 08:56:33;;;;;;;5.50;3.88;;;21.00;99.90;;;;;;6182025;23;20028;-77
2023/08/05 08:58:59;;;;;;;4.35;4.00;;;21.10;99.90;;;;;;6183313;23;19997;-79
2023/08/05 09:01:26;;;;;;;4.05;3.65;;;21.00;99.90;;;;;;6183627;23;20021;-79
2023/08/05 09:03:53;;;;;;;3.78;3.47;;;21.10;99.90;;;;;;6183370;23;20005;-79
2023/08/05 09:06:23;;;;;;;5.03;3.60;;;21.10;99.90;;;;;;6183418;23;20005;-77
2023/08/05 09:08:50;;;;;;;3.25;2.97;;;21.20;99.90;;;;;;6183453;23;20005;-77
2023/08/05 09:11:16;;;;;;;4.00;2.70;;;21.10;99.90;;;;;;6181947;23;20388;-77
2023/08/05 09:13:42;;;;;;;3.45;2.90;;;21.30;99.90;;;;;;6183146;23;20059;-77
2023/08/05 09:16:14;;;;;;;3.47;3.17;;;21.30;99.90;;;;;;6183275;23;20001;-76
2023/08/05 09:19:00;;;;;;;2.80;2.60;;;21.40;99.90;;;;;;6183397;23;20002;-77
2023/08/05 09:21:27;;;;;;;2.80;2.45;;;21.50;99.90;;;;;;6183559;23;19997;-79
2023/08/05 09:23:58;;;;;;;3.67;3.38;;;21.60;99.90;;;;;;6181796;23;20430;-76
2023/08/05 09:26:31;;;;;;;3.28;2.97;;;21.60;99.90;;;;;;6183468;23;20109;-78
2023/08/05 09:28:58;;;;;;;2.78;2.58;;;21.80;99.90;;;;;;6181575;23;20017;-77
2023/08/05 09:31:24;;;;;;;3.50;3.20;;;21.70;99.90;;;;;;6181986;23;20013;-77
2023/08/05 09:33:50;;;;;;;6.63;2.80;;;21.80;99.90;;;;;;6183382;23;20000;-77
2023/08/05 09:36:16;;;;;;;2.83;2.47;;;21.80;99.90;;;;;;6181919;23;19998;-77
2023/08/05 09:38:45;;;;;;;4.78;2.47;;;21.90;99.90;;;;;;6183187;23;20421;-77
2023/08/05 09:41:11;;;;;;;3.42;2.65;;;22.00;99.90;;;;;;6183294;23;20005;-77
2023/08/05 09:43:43;;;;;;;2.58;2.38;;;22.00;99.90;;;;;;6183399;23;20001;-77
2023/08/05 09:46:12;;;;;;;;;;;22.00;99.90;;;;;;6182402;23;20222;-76
2023/08/05 09:48:43;;;;;;;2.70;2.50;;;22.10;99.90;;;;;;6181530;23;19900;-77
2023/08/05 09:51:14;;;;;;;2.60;2.40;;;22.10;99.90;;;;;;6183465;23;20001;-77
2023/08/05 09:53:41;;;;;;;3.25;2.50;;;22.20;99.90;;;;;;6182753;23;20004;-76
2023/08/05 09:56:07;;;;;;;2.80;2.60;;;22.30;99.90;;;;;;6185310;23;20001;-77
2023/08/05 09:58:39;;;;;;;4.38;3.38;;;22.20;99.90;;;;;;6184875;23;19997;-77
2023/08/05 10:01:07;;;;;;;3.03;2.63;;;22.20;99.90;;;;;;6185227;23;20001;-77
2023/08/05 10:03:37;;;;;;;4.00;3.10;;;22.30;99.90;;;;;;6185079;23;20005;-77
2023/08/05 10:06:08;;;;;;;3.33;3.03;;;22.40;99.90;;;;;;6185140;23;20008;-77
2023/08/05 10:08:36;;;;;;;3.42;3.20;;;22.40;99.90;;;;;;6183298;23;20012;-77
2023/08/05 10:11:03;;;;;;;5.78;3.80;;;22.50;99.90;;;;;;6185090;23;20001;-77
2023/08/05 10:13:32;;;;;;;3.00;2.78;;;22.50;99.90;;;;;;6182993;23;20012;-77
2023/08/05 10:15:58;;;;;;;5.82;3.95;;;22.70;99.90;;;;;;6185040;23;20068;-78
2023/08/05 10:18:25;;;;;;;5.13;4.15;;;22.80;99.90;;;;;;6184589;23;20001;-77
2023/08/05 10:20:52;;;;;;;3.97;3.78;;;22.80;99.90;;;;;;6184691;23;20005;-77
2023/08/05 10:23:18;;;;;;;8.80;4.43;;;22.90;99.90;;;;;;6184912;23;20435;-77
2023/08/05 10:25:46;;;;;;;4.53;4.03;;;22.80;99.90;;;;;;6184815;23;20080;-77
2023/08/05 10:28:23;;;;;;;5.05;3.55;;;22.70;99.90;;;;;;6184320;23;20060;-76
2023/08/05 10:30:51;;;;;;;5.80;5.03;;;22.70;99.90;;;;;;6183305;23;20005;-78
2023/08/05 10:33:17;;;;;;;5.53;5.03;;;22.60;99.90;;;;;;6184467;23;20001;-77
2023/08/05 10:35:44;;;;;;;5.10;4.65;;;22.60;99.90;;;;;;6184858;23;19997;-78
2023/08/05 10:38:20;;;;;;;4.30;4.00;;;22.50;99.90;;;;;;6184457;23;20346;-78
2023/08/05 10:41:00;;;;;;;4.22;3.92;;;22.60;99.90;;;;;;6184897;23;19997;-77
2023/08/05 10:43:39;;;;;;;4.57;4.00;;;22.60;99.90;;;;;;6182801;23;20005;-78
2023/08/05 10:46:07;;;;;;;7.20;4.07;;;22.70;99.90;;;;;;6184825;23;20001;-78
2023/08/05 10:48:38;;;;;;;5.45;4.95;;;22.70;99.90;;;;;;6182955;23;20005;-78
2023/08/05 10:51:14;;;;;;;4.65;4.28;;;22.60;99.90;;;;;;6184715;23;20048;-78
2023/08/05 10:53:43;;;;;;;4.78;4.45;;;22.70;99.90;;;;;;6184537;23;20001;-78
2023/08/05 10:56:13;;;;;;;5.25;4.90;;;22.70;99.90;;;;;;6184603;23;20023;-78
2023/08/05 10:58:49;;;;;;;4.95;4.28;;;22.70;99.90;;;;;;6184233;23;19997;-78
2023/08/05 11:01:16;;;;;;;5.00;4.60;;;22.80;99.90;;;;;;6184719;23;20004;-79
2023/08/05 11:03:45;;;;;;;5.28;4.78;;;22.80;99.90;;;;;;6182745;23;20009;-78
2023/08/05 11:06:12;;;;;;;5.40;4.72;;;22.80;99.90;;;;;;6183120;23;20445;-78
2023/08/05 11:08:40;;;;;;;5.00;4.65;;;22.80;99.90;;;;;;6184302;23;20079;-78
2023/08/05 11:11:13;;;;;;;5.53;4.60;;;22.90;99.90;;;;;;6184457;23;20008;-78
2023/08/05 11:13:40;;;;;;;5.57;5.05;;;22.90;99.90;;;;;;6184133;23;20033;-78
2023/08/05 11:16:09;;;;;;;9.38;5.47;;;22.80;99.90;;;;;;6184501;23;20025;-78
2023/08/05 11:18:35;;;;;;;6.50;5.40;;;22.80;99.90;;;;;;6182455;23;20008;-78
2023/08/05 11:21:04;;;;;;;7.93;5.57;;;22.80;99.90;;;;;;6184551;23;20433;-79
2023/08/05 11:23:30;;;;;;;5.45;4.95;;;22.80;99.90;;;;;;6182682;23;20136;-78
2023/08/05 11:26:02;;;;;;;5.80;4.75;;;22.80;99.90;;;;;;6183085;23;20005;-78
2023/08/05 11:28:28;;;;;;;;;;;22.80;99.90;;;;;;6184385;23;20087;-78
2023/08/05 11:30:54;;;;;;;5.50;5.05;;;22.80;99.90;;;;;;6184460;23;19930;-78
2023/08/05 11:33:21;;;;;;;6.97;4.50;;;22.80;99.90;;;;;;6183428;23;20012;-78
2023/08/05 11:35:48;;;;;;;9.23;4.70;;;22.80;99.90;;;;;;6183877;23;20429;-78
2023/08/05 11:38:24;;;;;;;5.15;4.55;;;22.80;99.90;;;;;;6183517;23;19997;-78
2023/08/05 11:40:54;;;;;;;5.03;4.53;;;22.90;99.90;;;;;;6183662;23;20021;-79
2023/08/05 11:43:24;;;;;;;9.15;4.03;;;22.80;99.90;;;;;;6181867;23;20013;-78
2023/08/05 11:45:51;;;;;;;4.43;4.13;;;22.80;99.90;;;;;;6183773;23;20079;-78
2023/08/05 11:48:18;;;;;;;4.45;4.15;;;22.80;99.90;;;;;;6183514;23;20405;-78
2023/08/05 11:50:44;;;;;;;4.30;3.97;;;22.80;99.90;;;;;;6182172;23;20009;-78
2023/08/05 11:53:12;;;;;;;4.18;3.88;;;22.80;99.90;;;;;;6183552;23;20488;-78
2023/08/05 11:55:46;;;;;;;4.45;4.13;;;22.80;99.90;;;;;;6181983;23;20080;-78
2023/08/05 11:58:13;;;;;;;5.55;4.55;;;22.80;99.90;;;;;;6183157;23;20004;-78
2023/08/05 12:00:47;;;;;;;4.40;4.00;;;22.80;99.90;;;;;;6183705;23;20501;-78
2023/08/05 12:03:13;;;;;;;5.07;4.00;;;22.80;99.90;;;;;;6183601;23;20096;-78
2023/08/05 12:05:43;;;;;;;4.10;3.70;;;22.80;99.90;;;;;;6183844;23;20188;-78
2023/08/05 12:08:10;;;;;;;7.15;3.92;;;22.80;99.90;;;;;;6182057;23;20011;-78
2023/08/05 12:10:36;;;;;;;4.57;3.92;;;22.80;99.90;;;;;;6183734;23;20415;-75
2023/08/05 12:13:04;;;;;;;5.40;3.53;;;22.80;99.90;;;;;;6181564;23;20344;-75
2023/08/05 12:15:30;;;;;;;2.92;2.63;;;22.80;99.90;;;;;;6181765;23;20004;-74
2023/08/05 12:18:01;;;;;;;2.60;2.40;;;22.80;99.90;;;;;;6182069;23;20029;-74
2023/08/05 12:20:29;;;;;;;2.92;1.83;;;22.70;99.90;;;;;;6182069;23;20001;-74
2023/08/05 12:22:56;;;;;;;4.43;2.10;;;22.70;99.90;;;;;;6183506;23;20001;-74
2023/08/05 12:25:22;;;;;;;2.58;1.65;;;22.70;99.90;;;;;;6183760;23;20001;-74
2023/08/05 12:27:48;;;;;;;2.03;1.80;;;22.60;99.90;;;;;;6183425;23;20009;-75
2023/08/05 12:30:15;;;;;;;3.15;2.15;;;22.70;99.90;;;;;;6183498;23;20001;-74
2023/08/05 12:32:41;;;;;;;3.42;2.28;;;22.60;99.90;;;;;;6183849;23;20413;-74
2023/08/05 12:35:08;;;;;;;4.03;2.42;;;22.60;99.90;;;;;;6183358;23;20007;-74
2023/08/05 12:37:36;;;;;;;2.30;2.00;;;22.60;99.90;;;;;;6183857;23;20048;-74
2023/08/05 12:40:03;;;;;;;2.90;2.60;;;22.70;99.90;;;;;;6183464;23;20005;-75
2023/08/05 12:42:29;;;;;;;6.30;2.47;;;22.70;99.90;;;;;;6183562;23;20005;-74
2023/08/05 12:44:55;;;;;;;4.25;2.35;;;22.60;99.90;;;;;;6181960;23;20373;-74
2023/08/05 12:47:22;;;;;;;2.63;2.42;;;22.70;99.90;;;;;;6182045;23;20021;-74